sensor_id;sensor_type;location;lat;lon;timestamp;temperature;humidity
3980;DHT22;2004;52.452;13.120;2024-02-23T00:07:41;10.20;99.90
3980;DHT22;2004;52.452;13.120;2024-02-23T00:15:32;10.20;99.90
3980;DHT22;2004;52.452;13.120;2024-02-23T00:23:22;10.30;99.90
3980;DHT22;2004;52.452;13.120;2024-02-23T00:31:13;10.20;99.90
3980;DHT22;2004;52.452;13.120;2024-02-23T00:39:04;10.30;99.90
3980;DHT22;2004;52.452;13.120;2024-02-23T00:46:54;10.20;99.90
3980;DHT22;2004;52.452;13.120;2024-02-23T00:54:45;10.20;99.90
3980;DHT22;2004;52.452;13.120;2024-02-23T01:02:36;10.20;99.90
3980;DHT22;2004;52.452;13.120;2024-02-23T01:10:27;10.30;99.90
3980;DHT22;2004;52.452;13.120;2024-02-23T01:18:17;10.30;99.90
3980;DHT22;2004;52.452;13.120;2024-02-23T01:26:08;10.40;99.90
3980;DHT22;2004;52.452;13.120;2024-02-23T01:33:59;10.50;99.90
3980;DHT22;2004;52.452;13.120;2024-02-23T01:41:49;10.50;99.90
3980;DHT22;2004;52.452;13.120;2024-02-23T01:49:40;10.60;99.90
3980;DHT22;2004;52.452;13.120;2024-02-23T01:57:30;10.70;99.90
3980;DHT22;2004;52.452;13.120;2024-02-23T02:05:21;10.70;99.90
3980;DHT22;2004;52.452;13.120;2024-02-23T02:13:12;10.70;99.90
3980;DHT22;2004;52.452;13.120;2024-02-23T02:21:03;10.70;99.90
3980;DHT22;2004;52.452;13.120;2024-02-23T02:28:53;10.60;99.90
3980;DHT22;2004;52.452;13.120;2024-02-23T02:36:44;10.50;99.90
3980;DHT22;2004;52.452;13.120;2024-02-23T02:44:35;10.30;99.90
3980;DHT22;2004;52.452;13.120;2024-02-23T02:52:25;10.20;99.90
3980;DHT22;2004;52.452;13.120;2024-02-23T03:00:16;10.10;99.90
3980;DHT22;2004;52.452;13.120;2024-02-23T03:08:07;10.00;99.90
3980;DHT22;2004;52.452;13.120;2024-02-23T03:15:57;9.90;99.90
3980;DHT22;2004;52.452;13.120;2024-02-23T03:23:48;9.80;99.90
3980;DHT22;2004;52.452;13.120;2024-02-23T03:31:39;9.80;99.90
3980;DHT22;2004;52.452;13.120;2024-02-23T03:39:29;9.70;99.90
3980;DHT22;2004;52.452;13.120;2024-02-23T03:47:20;9.60;99.90
3980;DHT22;2004;52.452;13.120;2024-02-23T03:55:11;9.60;99.90
3980;DHT22;2004;52.452;13.120;2024-02-23T04:03:01;9.50;99.90
3980;DHT22;2004;52.452;13.120;2024-02-23T04:10:52;9.50;99.90
3980;DHT22;2004;52.452;13.120;2024-02-23T04:18:42;9.40;99.90
3980;DHT22;2004;52.452;13.120;2024-02-23T04:26:34;9.30;99.90
3980;DHT22;2004;52.452;13.120;2024-02-23T04:34:24;9.30;99.90
3980;DHT22;2004;52.452;13.120;2024-02-23T04:42:15;9.20;99.90
3980;DHT22;2004;52.452;13.120;2024-02-23T04:50:06;9.20;99.90
3980;DHT22;2004;52.452;13.120;2024-02-23T04:57:57;9.20;99.90
3980;DHT22;2004;52.452;13.120;2024-02-23T05:05:48;9.10;99.90
3980;DHT22;2004;52.452;13.120;2024-02-23T05:13:43;9.10;99.90
3980;DHT22;2004;52.452;13.120;2024-02-23T05:21:35;9.00;99.90
3980;DHT22;2004;52.452;13.120;2024-02-23T05:29:25;8.80;99.90
3980;DHT22;2004;52.452;13.120;2024-02-23T05:37:16;8.50;99.90
3980;DHT22;2004;52.452;13.120;2024-02-23T05:45:07;8.40;99.90
3980;DHT22;2004;52.452;13.120;2024-02-23T05:53:01;8.20;99.90
3980;DHT22;2004;52.452;13.120;2024-02-23T06:00:54;8.10;99.90
3980;DHT22;2004;52.452;13.120;2024-02-23T06:08:45;8.00;99.90
3980;DHT22;2004;52.452;13.120;2024-02-23T06:16:36;7.90;99.90
3980;DHT22;2004;52.452;13.120;2024-02-23T06:24:27;7.80;99.90
3980;DHT22;2004;52.452;13.120;2024-02-23T06:32:18;7.70;99.90
3980;DHT22;2004;52.452;13.120;2024-02-23T06:40:09;7.70;99.90
3980;DHT22;2004;52.452;13.120;2024-02-23T06:48:00;7.60;99.90
3980;DHT22;2004;52.452;13.120;2024-02-23T06:55:50;7.60;99.90
3980;DHT22;2004;52.452;13.120;2024-02-23T07:03:41;7.60;99.90
3980;DHT22;2004;52.452;13.120;2024-02-23T07:11:33;7.60;99.90
3980;DHT22;2004;52.452;13.120;2024-02-23T07:19:24;7.70;99.90
3980;DHT22;2004;52.452;13.120;2024-02-23T07:27:15;7.70;99.90
3980;DHT22;2004;52.452;13.120;2024-02-23T07:35:05;7.70;99.90
3980;DHT22;2004;52.452;13.120;2024-02-23T07:42:56;7.80;99.90
3980;DHT22;2004;52.452;13.120;2024-02-23T07:50:47;7.80;99.90
3980;DHT22;2004;52.452;13.120;2024-02-23T07:58:37;7.90;99.90
3980;DHT22;2004;52.452;13.120;2024-02-23T08:06:28;7.90;99.90
3980;DHT22;2004;52.452;13.120;2024-02-23T08:14:19;8.00;99.90
3980;DHT22;2004;52.452;13.120;2024-02-23T08:22:09;8.20;99.90
3980;DHT22;2004;52.452;13.120;2024-02-23T08:30:00;8.20;99.90
3980;DHT22;2004;52.452;13.120;2024-02-23T08:37:51;8.20;99.90
3980;DHT22;2004;52.452;13.120;2024-02-23T08:45:41;8.20;99.90
3980;DHT22;2004;52.452;13.120;2024-02-23T08:53:32;8.30;99.90
3980;DHT22;2004;52.452;13.120;2024-02-23T09:01:23;8.30;99.90
3980;DHT22;2004;52.452;13.120;2024-02-23T09:09:13;8.40;99.90
3980;DHT22;2004;52.452;13.120;2024-02-23T09:17:04;8.50;99.90
3980;DHT22;2004;52.452;13.120;2024-02-23T09:24:56;8.60;99.90
3980;DHT22;2004;52.452;13.120;2024-02-23T09:32:47;8.70;99.90
3980;DHT22;2004;52.452;13.120;2024-02-23T09:40:39;8.80;99.90
3980;DHT22;2004;52.452;13.120;2024-02-23T09:48:30;9.00;99.90
3980;DHT22;2004;52.452;13.120;2024-02-23T09:56:27;9.10;99.90
3980;DHT22;2004;52.452;13.120;2024-02-23T10:04:19;9.00;99.90
3980;DHT22;2004;52.452;13.120;2024-02-23T10:12:10;8.90;99.90
3980;DHT22;2004;52.452;13.120;2024-02-23T10:20:01;8.90;99.90
3980;DHT22;2004;52.452;13.120;2024-02-23T10:27:54;9.00;99.90
3980;DHT22;2004;52.452;13.120;2024-02-23T10:35:46;9.00;99.90
3980;DHT22;2004;52.452;13.120;2024-02-23T10:43:41;9.00;99.90
3980;DHT22;2004;52.452;13.120;2024-02-23T10:51:35;9.10;99.90
3980;DHT22;2004;52.452;13.120;2024-02-23T10:59:26;9.20;99.90
3980;DHT22;2004;52.452;13.120;2024-02-23T11:07:20;9.10;99.90
3980;DHT22;2004;52.452;13.120;2024-02-23T11:15:30;9.20;99.90
3980;DHT22;2004;52.452;13.120;2024-02-23T11:23:21;9.30;99.90
3980;DHT22;2004;52.452;13.120;2024-02-23T11:31:13;9.30;99.70
3980;DHT22;2004;52.452;13.120;2024-02-23T11:39:03;9.30;99.90
3980;DHT22;2004;52.452;13.120;2024-02-23T11:46:55;9.30;99.90
3980;DHT22;2004;52.452;13.120;2024-02-23T11:54:48;9.40;98.60
3980;DHT22;2004;52.452;13.120;2024-02-23T12:02:39;9.40;99.20
3980;DHT22;2004;52.452;13.120;2024-02-23T12:10:30;9.50;99.60
3980;DHT22;2004;52.452;13.120;2024-02-23T12:18:24;9.50;99.90
3980;DHT22;2004;52.452;13.120;2024-02-23T12:26:17;9.60;99.30
3980;DHT22;2004;52.452;13.120;2024-02-23T12:34:11;9.60;99.90
3980;DHT22;2004;52.452;13.120;2024-02-23T12:42:02;9.60;99.60
3980;DHT22;2004;52.452;13.120;2024-02-23T12:49:53;9.70;99.90
3980;DHT22;2004;52.452;13.120;2024-02-23T12:57:44;9.70;99.70
3980;DHT22;2004;52.452;13.120;2024-02-23T13:05:34;9.60;99.90
3980;DHT22;2004;52.452;13.120;2024-02-23T13:13:25;9.70;99.00
3980;DHT22;2004;52.452;13.120;2024-02-23T13:21:15;9.70;99.90
3980;DHT22;2004;52.452;13.120;2024-02-23T13:29:06;9.60;99.50
3980;DHT22;2004;52.452;13.120;2024-02-23T13:36:57;9.60;99.80
3980;DHT22;2004;52.452;13.120;2024-02-23T13:44:47;9.60;99.90
3980;DHT22;2004;52.452;13.120;2024-02-23T13:52:38;9.60;99.90
3980;DHT22;2004;52.452;13.120;2024-02-23T14:00:28;9.60;99.90
3980;DHT22;2004;52.452;13.120;2024-02-23T14:08:19;9.50;98.70
3980;DHT22;2004;52.452;13.120;2024-02-23T14:16:10;9.50;97.60
3980;DHT22;2004;52.452;13.120;2024-02-23T14:24:02;9.40;97.90
3980;DHT22;2004;52.452;13.120;2024-02-23T14:31:53;9.40;99.80
3980;DHT22;2004;52.452;13.120;2024-02-23T14:39:43;9.40;98.80
3980;DHT22;2004;52.452;13.120;2024-02-23T14:47:34;9.30;99.60
3980;DHT22;2004;52.452;13.120;2024-02-23T14:55:25;9.30;98.60
3980;DHT22;2004;52.452;13.120;2024-02-23T15:03:15;9.30;99.90
3980;DHT22;2004;52.452;13.120;2024-02-23T15:11:06;9.30;99.50
3980;DHT22;2004;52.452;13.120;2024-02-23T15:18:57;9.30;99.90
3980;DHT22;2004;52.452;13.120;2024-02-23T15:26:48;9.30;99.90
3980;DHT22;2004;52.452;13.120;2024-02-23T15:34:39;9.20;99.90
3980;DHT22;2004;52.452;13.120;2024-02-23T15:42:30;9.10;99.90
3980;DHT22;2004;52.452;13.120;2024-02-23T15:50:21;9.10;99.90
3980;DHT22;2004;52.452;13.120;2024-02-23T15:58:13;9.00;99.50
3980;DHT22;2004;52.452;13.120;2024-02-23T16:06:06;8.90;99.20
3980;DHT22;2004;52.452;13.120;2024-02-23T16:13:57;8.80;99.70
3980;DHT22;2004;52.452;13.120;2024-02-23T16:21:47;8.70;99.90
3980;DHT22;2004;52.452;13.120;2024-02-23T16:29:39;8.60;99.90
3980;DHT22;2004;52.452;13.120;2024-02-23T16:37:30;8.60;99.90
3980;DHT22;2004;52.452;13.120;2024-02-23T16:45:21;8.40;99.90
3980;DHT22;2004;52.452;13.120;2024-02-23T16:53:12;8.40;99.90
3980;DHT22;2004;52.452;13.120;2024-02-23T17:01:04;8.30;99.90
3980;DHT22;2004;52.452;13.120;2024-02-23T17:08:56;8.20;99.90
3980;DHT22;2004;52.452;13.120;2024-02-23T17:16:46;8.20;99.90
3980;DHT22;2004;52.452;13.120;2024-02-23T17:24:37;8.10;99.90
3980;DHT22;2004;52.452;13.120;2024-02-23T17:32:27;7.90;99.90
3980;DHT22;2004;52.452;13.120;2024-02-23T17:40:18;7.80;99.90
3980;DHT22;2004;52.452;13.120;2024-02-23T17:48:09;7.70;99.90
3980;DHT22;2004;52.452;13.120;2024-02-23T17:55:59;7.60;99.90
3980;DHT22;2004;52.452;13.120;2024-02-23T18:03:50;7.60;99.90
3980;DHT22;2004;52.452;13.120;2024-02-23T18:11:40;7.40;99.90
3980;DHT22;2004;52.452;13.120;2024-02-23T18:19:31;7.20;99.90
3980;DHT22;2004;52.452;13.120;2024-02-23T18:27:22;7.10;99.90
3980;DHT22;2004;52.452;13.120;2024-02-23T18:35:16;7.00;99.90
3980;DHT22;2004;52.452;13.120;2024-02-23T18:43:06;6.90;99.90
3980;DHT22;2004;52.452;13.120;2024-02-23T18:50:57;6.70;99.90
3980;DHT22;2004;52.452;13.120;2024-02-23T18:58:48;6.60;99.90
3980;DHT22;2004;52.452;13.120;2024-02-23T19:06:38;6.50;99.90
3980;DHT22;2004;52.452;13.120;2024-02-23T19:14:29;6.50;99.90
3980;DHT22;2004;52.452;13.120;2024-02-23T19:22:20;6.50;99.90
3980;DHT22;2004;52.452;13.120;2024-02-23T19:30:11;6.50;99.90
3980;DHT22;2004;52.452;13.120;2024-02-23T19:38:05;6.50;99.90
3980;DHT22;2004;52.452;13.120;2024-02-23T19:45:56;6.50;99.90
3980;DHT22;2004;52.452;13.120;2024-02-23T19:53:47;6.40;99.90
3980;DHT22;2004;52.452;13.120;2024-02-23T20:01:37;6.50;99.90
3980;DHT22;2004;52.452;13.120;2024-02-23T20:09:28;6.50;99.90
3980;DHT22;2004;52.452;13.120;2024-02-23T20:17:19;6.50;99.90
3980;DHT22;2004;52.452;13.120;2024-02-23T20:25:10;6.50;99.90
3980;DHT22;2004;52.452;13.120;2024-02-23T20:33:00;6.50;99.90
3980;DHT22;2004;52.452;13.120;2024-02-23T20:40:51;6.50;99.90
3980;DHT22;2004;52.452;13.120;2024-02-23T20:48:42;6.50;99.90
3980;DHT22;2004;52.452;13.120;2024-02-23T20:56:33;6.50;99.90
3980;DHT22;2004;52.452;13.120;2024-02-23T21:04:24;6.50;99.90
3980;DHT22;2004;52.452;13.120;2024-02-23T21:12:15;6.50;99.90
3980;DHT22;2004;52.452;13.120;2024-02-23T21:20:06;6.50;99.90
3980;DHT22;2004;52.452;13.120;2024-02-23T21:27:57;6.30;99.90
3980;DHT22;2004;52.452;13.120;2024-02-23T21:35:48;6.20;99.90
3980;DHT22;2004;52.452;13.120;2024-02-23T21:43:38;6.10;99.90
3980;DHT22;2004;52.452;13.120;2024-02-23T21:51:29;5.90;99.90
3980;DHT22;2004;52.452;13.120;2024-02-23T21:59:20;5.80;99.90
3980;DHT22;2004;52.452;13.120;2024-02-23T22:07:10;5.70;99.90
3980;DHT22;2004;52.452;13.120;2024-02-23T22:15:03;5.60;99.90
3980;DHT22;2004;52.452;13.120;2024-02-23T22:22:55;5.50;99.90
3980;DHT22;2004;52.452;13.120;2024-02-23T22:30:46;5.50;99.90
3980;DHT22;2004;52.452;13.120;2024-02-23T22:38:36;5.40;99.90
3980;DHT22;2004;52.452;13.120;2024-02-23T22:46:27;5.30;99.90
3980;DHT22;2004;52.452;13.120;2024-02-23T22:54:17;5.30;99.90
3980;DHT22;2004;52.452;13.120;2024-02-23T23:02:10;5.20;99.90
3980;DHT22;2004;52.452;13.120;2024-02-23T23:10:04;5.20;99.90
3980;DHT22;2004;52.452;13.120;2024-02-23T23:17:55;5.10;99.90
3980;DHT22;2004;52.452;13.120;2024-02-23T23:25:46;5.00;99.90
3980;DHT22;2004;52.452;13.120;2024-02-23T23:33:36;4.90;99.90
3980;DHT22;2004;52.452;13.120;2024-02-23T23:41:27;4.90;99.90
3980;DHT22;2004;52.452;13.120;2024-02-23T23:49:17;4.80;99.90
3980;DHT22;2004;52.452;13.120;2024-02-23T23:57:08;4.70;99.90
